sensor_id;sensor_type;location;lat;lon;timestamp;temperature;humidity
16578;DHT22;8401;52.528;13.340;2022-08-06T00:00:53;17.50;99.90
16578;DHT22;8401;52.528;13.340;2022-08-06T00:03:19;17.30;99.90
16578;DHT22;8401;52.528;13.340;2022-08-06T00:05:44;17.20;99.90
16578;DHT22;8401;52.528;13.340;2022-08-06T00:08:10;17.20;99.90
16578;DHT22;8401;52.528;13.340;2022-08-06T00:10:36;17.20;99.90
16578;DHT22;8401;52.528;13.340;2022-08-06T00:13:03;17.10;99.90
16578;DHT22;8401;52.528;13.340;2022-08-06T00:15:29;17.10;99.90
16578;DHT22;8401;52.528;13.340;2022-08-06T00:17:54;17.10;99.90
16578;DHT22;8401;52.528;13.340;2022-08-06T00:20:20;17.20;99.90
16578;DHT22;8401;52.528;13.340;2022-08-06T00:22:46;17.10;99.90
16578;DHT22;8401;52.528;13.340;2022-08-06T00:25:11;17.10;99.90
16578;DHT22;8401;52.528;13.340;2022-08-06T00:27:38;17.00;99.90
16578;DHT22;8401;52.528;13.340;2022-08-06T00:30:08;16.90;99.90
16578;DHT22;8401;52.528;13.340;2022-08-06T00:32:34;16.90;99.90
16578;DHT22;8401;52.528;13.340;2022-08-06T00:35:00;16.80;99.90
16578;DHT22;8401;52.528;13.340;2022-08-06T00:37:26;16.80;99.90
16578;DHT22;8401;52.528;13.340;2022-08-06T00:39:57;16.70;99.90
16578;DHT22;8401;52.528;13.340;2022-08-06T00:42:22;16.60;99.90
16578;DHT22;8401;52.528;13.340;2022-08-06T00:44:48;16.60;99.90
16578;DHT22;8401;52.528;13.340;2022-08-06T00:47:14;16.60;99.90
16578;DHT22;8401;52.528;13.340;2022-08-06T00:49:39;16.60;99.90
16578;DHT22;8401;52.528;13.340;2022-08-06T00:52:05;16.50;99.90
16578;DHT22;8401;52.528;13.340;2022-08-06T00:54:31;16.50;99.90
16578;DHT22;8401;52.528;13.340;2022-08-06T00:56:56;16.60;99.90
16578;DHT22;8401;52.528;13.340;2022-08-06T00:59:22;16.50;99.90
16578;DHT22;8401;52.528;13.340;2022-08-06T01:01:47;16.50;99.90
16578;DHT22;8401;52.528;13.340;2022-08-06T01:04:13;16.50;99.90
16578;DHT22;8401;52.528;13.340;2022-08-06T01:06:39;16.60;99.90
16578;DHT22;8401;52.528;13.340;2022-08-06T01:09:04;16.40;99.90
16578;DHT22;8401;52.528;13.340;2022-08-06T01:11:30;16.50;99.90
16578;DHT22;8401;52.528;13.340;2022-08-06T01:13:56;16.50;99.90
16578;DHT22;8401;52.528;13.340;2022-08-06T01:27:42;16.20;99.90
16578;DHT22;8401;52.528;13.340;2022-08-06T01:30:18;16.00;99.90
16578;DHT22;8401;52.528;13.340;2022-08-06T01:32:52;16.10;99.90
16578;DHT22;8401;52.528;13.340;2022-08-06T01:35:27;16.10;99.90
16578;DHT22;8401;52.528;13.340;2022-08-06T01:37:58;16.10;99.90
16578;DHT22;8401;52.528;13.340;2022-08-06T01:40:29;16.00;99.90
16578;DHT22;8401;52.528;13.340;2022-08-06T01:42:56;16.10;99.90
16578;DHT22;8401;52.528;13.340;2022-08-06T01:45:27;16.00;99.90
16578;DHT22;8401;52.528;13.340;2022-08-06T01:47:56;15.90;99.90
16578;DHT22;8401;52.528;13.340;2022-08-06T01:50:27;15.90;99.90
16578;DHT22;8401;52.528;13.340;2022-08-06T01:52:53;15.80;99.90
16578;DHT22;8401;52.528;13.340;2022-08-06T01:55:21;15.80;99.90
16578;DHT22;8401;52.528;13.340;2022-08-06T01:57:51;15.80;99.90
16578;DHT22;8401;52.528;13.340;2022-08-06T02:00:18;15.70;99.90
16578;DHT22;8401;52.528;13.340;2022-08-06T02:02:46;15.70;99.90
16578;DHT22;8401;52.528;13.340;2022-08-06T02:05:13;15.70;99.90
16578;DHT22;8401;52.528;13.340;2022-08-06T02:07:42;15.60;99.90
16578;DHT22;8401;52.528;13.340;2022-08-06T02:10:09;15.70;99.90
16578;DHT22;8401;52.528;13.340;2022-08-06T02:12:38;15.60;99.90
16578;DHT22;8401;52.528;13.340;2022-08-06T02:15:09;15.60;99.90
16578;DHT22;8401;52.528;13.340;2022-08-06T02:17:43;15.70;99.90
16578;DHT22;8401;52.528;13.340;2022-08-06T02:20:16;15.60;99.90
16578;DHT22;8401;52.528;13.340;2022-08-06T02:22:44;15.50;99.90
16578;DHT22;8401;52.528;13.340;2022-08-06T02:25:13;15.50;99.90
16578;DHT22;8401;52.528;13.340;2022-08-06T02:27:51;15.40;99.90
16578;DHT22;8401;52.528;13.340;2022-08-06T02:30:17;15.20;99.90
16578;DHT22;8401;52.528;13.340;2022-08-06T02:32:44;15.30;99.90
16578;DHT22;8401;52.528;13.340;2022-08-06T02:35:10;15.30;99.90
16578;DHT22;8401;52.528;13.340;2022-08-06T02:37:50;15.40;99.90
16578;DHT22;8401;52.528;13.340;2022-08-06T02:40:27;15.30;99.90
16578;DHT22;8401;52.528;13.340;2022-08-06T02:42:58;15.20;99.90
16578;DHT22;8401;52.528;13.340;2022-08-06T02:45:54;15.30;99.90
16578;DHT22;8401;52.528;13.340;2022-08-06T02:48:39;15.10;99.90
16578;DHT22;8401;52.528;13.340;2022-08-06T02:51:10;15.10;99.90
16578;DHT22;8401;52.528;13.340;2022-08-06T02:53:43;15.30;99.90
16578;DHT22;8401;52.528;13.340;2022-08-06T02:56:12;15.30;99.90
16578;DHT22;8401;52.528;13.340;2022-08-06T02:58:44;15.10;99.90
16578;DHT22;8401;52.528;13.340;2022-08-06T03:01:15;15.20;99.90
16578;DHT22;8401;52.528;13.340;2022-08-06T03:03:44;15.10;99.90
16578;DHT22;8401;52.528;13.340;2022-08-06T03:06:12;15.10;99.90
16578;DHT22;8401;52.528;13.340;2022-08-06T03:08:40;15.10;99.90
16578;DHT22;8401;52.528;13.340;2022-08-06T03:11:07;15.10;99.90
16578;DHT22;8401;52.528;13.340;2022-08-06T03:13:36;15.00;99.90
16578;DHT22;8401;52.528;13.340;2022-08-06T03:16:03;15.00;99.90
16578;DHT22;8401;52.528;13.340;2022-08-06T03:18:30;15.10;99.90
16578;DHT22;8401;52.528;13.340;2022-08-06T03:20:58;15.10;99.90
16578;DHT22;8401;52.528;13.340;2022-08-06T03:23:25;15.00;99.90
16578;DHT22;8401;52.528;13.340;2022-08-06T03:25:51;15.10;99.90
16578;DHT22;8401;52.528;13.340;2022-08-06T03:28:18;15.00;99.90
16578;DHT22;8401;52.528;13.340;2022-08-06T03:30:44;14.90;99.90
16578;DHT22;8401;52.528;13.340;2022-08-06T03:33:13;14.90;99.90
16578;DHT22;8401;52.528;13.340;2022-08-06T03:35:40;14.80;99.90
16578;DHT22;8401;52.528;13.340;2022-08-06T03:38:08;14.80;99.90
16578;DHT22;8401;52.528;13.340;2022-08-06T03:40:36;14.80;99.90
16578;DHT22;8401;52.528;13.340;2022-08-06T03:43:03;14.80;99.90
16578;DHT22;8401;52.528;13.340;2022-08-06T03:45:31;14.70;99.90
16578;DHT22;8401;52.528;13.340;2022-08-06T03:48:01;14.80;99.90
16578;DHT22;8401;52.528;13.340;2022-08-06T03:50:31;14.70;99.90
16578;DHT22;8401;52.528;13.340;2022-08-06T03:53:02;14.70;99.90
16578;DHT22;8401;52.528;13.340;2022-08-06T03:55:30;14.80;99.90
16578;DHT22;8401;52.528;13.340;2022-08-06T03:57:59;14.80;99.90
16578;DHT22;8401;52.528;13.340;2022-08-06T04:00:27;14.60;99.90
16578;DHT22;8401;52.528;13.340;2022-08-06T04:02:55;14.70;99.90
16578;DHT22;8401;52.528;13.340;2022-08-06T04:05:25;14.80;99.90
16578;DHT22;8401;52.528;13.340;2022-08-06T04:07:53;14.90;99.90
16578;DHT22;8401;52.528;13.340;2022-08-06T04:10:20;14.90;99.90
16578;DHT22;8401;52.528;13.340;2022-08-06T04:12:46;14.80;99.90
16578;DHT22;8401;52.528;13.340;2022-08-06T04:15:12;14.80;99.90
16578;DHT22;8401;52.528;13.340;2022-08-06T04:17:42;14.80;99.90
16578;DHT22;8401;52.528;13.340;2022-08-06T04:20:15;14.90;99.90
16578;DHT22;8401;52.528;13.340;2022-08-06T04:22:42;14.80;99.90
16578;DHT22;8401;52.528;13.340;2022-08-06T04:25:08;14.70;99.90
16578;DHT22;8401;52.528;13.340;2022-08-06T04:27:37;14.80;99.90
16578;DHT22;8401;52.528;13.340;2022-08-06T04:30:04;15.00;99.90
16578;DHT22;8401;52.528;13.340;2022-08-06T04:32:31;14.90;99.90
16578;DHT22;8401;52.528;13.340;2022-08-06T04:35:02;14.80;99.90
16578;DHT22;8401;52.528;13.340;2022-08-06T04:37:28;15.00;99.90
16578;DHT22;8401;52.528;13.340;2022-08-06T04:39:55;14.80;99.90
16578;DHT22;8401;52.528;13.340;2022-08-06T04:42:21;14.80;99.90
16578;DHT22;8401;52.528;13.340;2022-08-06T04:44:47;14.90;99.90
16578;DHT22;8401;52.528;13.340;2022-08-06T04:47:14;14.90;99.90
16578;DHT22;8401;52.528;13.340;2022-08-06T04:49:41;14.90;99.90
16578;DHT22;8401;52.528;13.340;2022-08-06T04:52:07;15.00;99.90
16578;DHT22;8401;52.528;13.340;2022-08-06T04:54:32;14.90;99.90
16578;DHT22;8401;52.528;13.340;2022-08-06T04:56:58;14.90;99.90
16578;DHT22;8401;52.528;13.340;2022-08-06T04:59:23;14.90;99.90
16578;DHT22;8401;52.528;13.340;2022-08-06T05:01:49;14.90;99.90
16578;DHT22;8401;52.528;13.340;2022-08-06T05:04:15;14.80;99.90
16578;DHT22;8401;52.528;13.340;2022-08-06T05:06:48;14.60;99.90
16578;DHT22;8401;52.528;13.340;2022-08-06T05:09:24;14.70;99.90
16578;DHT22;8401;52.528;13.340;2022-08-06T05:12:16;14.60;99.90
16578;DHT22;8401;52.528;13.340;2022-08-06T05:17:22;14.70;99.90
16578;DHT22;8401;52.528;13.340;2022-08-06T05:20:11;14.60;99.90
16578;DHT22;8401;52.528;13.340;2022-08-06T05:22:39;14.70;99.90
16578;DHT22;8401;52.528;13.340;2022-08-06T05:25:07;14.60;99.90
16578;DHT22;8401;52.528;13.340;2022-08-06T05:27:33;14.70;99.90
16578;DHT22;8401;52.528;13.340;2022-08-06T05:29:59;14.60;99.90
16578;DHT22;8401;52.528;13.340;2022-08-06T05:32:26;14.60;99.90
16578;DHT22;8401;52.528;13.340;2022-08-06T05:34:52;14.70;99.90
16578;DHT22;8401;52.528;13.340;2022-08-06T05:37:17;14.80;99.90
16578;DHT22;8401;52.528;13.340;2022-08-06T05:39:43;14.80;99.90
16578;DHT22;8401;52.528;13.340;2022-08-06T05:42:08;14.70;99.90
16578;DHT22;8401;52.528;13.340;2022-08-06T05:44:34;14.80;99.90
16578;DHT22;8401;52.528;13.340;2022-08-06T05:47:06;14.80;99.90
16578;DHT22;8401;52.528;13.340;2022-08-06T05:49:44;14.70;99.90
16578;DHT22;8401;52.528;13.340;2022-08-06T05:52:21;14.80;99.90
16578;DHT22;8401;52.528;13.340;2022-08-06T05:57:25;15.00;99.90
16578;DHT22;8401;52.528;13.340;2022-08-06T05:59:59;15.20;99.90
16578;DHT22;8401;52.528;13.340;2022-08-06T06:02:27;15.10;99.90
16578;DHT22;8401;52.528;13.340;2022-08-06T06:04:54;15.30;99.90
16578;DHT22;8401;52.528;13.340;2022-08-06T06:07:21;15.20;99.90
16578;DHT22;8401;52.528;13.340;2022-08-06T06:09:47;15.40;99.90
16578;DHT22;8401;52.528;13.340;2022-08-06T06:12:13;15.30;99.90
16578;DHT22;8401;52.528;13.340;2022-08-06T06:14:42;15.40;99.90
16578;DHT22;8401;52.528;13.340;2022-08-06T06:28:33;15.50;99.90
16578;DHT22;8401;52.528;13.340;2022-08-06T06:31:27;15.50;99.90
16578;DHT22;8401;52.528;13.340;2022-08-06T06:34:04;15.70;99.90
16578;DHT22;8401;52.528;13.340;2022-08-06T06:36:56;15.70;99.90
16578;DHT22;8401;52.528;13.340;2022-08-06T06:39:33;15.80;99.90
16578;DHT22;8401;52.528;13.340;2022-08-06T06:42:08;16.00;99.90
16578;DHT22;8401;52.528;13.340;2022-08-06T06:44:42;16.10;99.90
16578;DHT22;8401;52.528;13.340;2022-08-06T06:47:26;16.30;99.90
16578;DHT22;8401;52.528;13.340;2022-08-06T06:49:59;16.20;99.90
16578;DHT22;8401;52.528;13.340;2022-08-06T06:52:34;16.20;99.90
16578;DHT22;8401;52.528;13.340;2022-08-06T06:55:10;16.30;99.90
16578;DHT22;8401;52.528;13.340;2022-08-06T06:57:43;16.10;99.90
16578;DHT22;8401;52.528;13.340;2022-08-06T07:00:11;16.30;99.90
16578;DHT22;8401;52.528;13.340;2022-08-06T07:02:38;16.40;99.90
16578;DHT22;8401;52.528;13.340;2022-08-06T07:05:08;16.50;99.90
16578;DHT22;8401;52.528;13.340;2022-08-06T07:07:38;16.80;99.90
16578;DHT22;8401;52.528;13.340;2022-08-06T07:10:07;17.00;99.90
16578;DHT22;8401;52.528;13.340;2022-08-06T07:12:34;16.90;99.90
16578;DHT22;8401;52.528;13.340;2022-08-06T07:15:03;16.90;99.90
16578;DHT22;8401;52.528;13.340;2022-08-06T07:17:31;17.00;99.90
16578;DHT22;8401;52.528;13.340;2022-08-06T07:19:59;17.10;99.90
16578;DHT22;8401;52.528;13.340;2022-08-06T07:22:26;17.30;99.90
16578;DHT22;8401;52.528;13.340;2022-08-06T07:24:59;17.50;99.90
16578;DHT22;8401;52.528;13.340;2022-08-06T07:27:29;17.40;99.90
16578;DHT22;8401;52.528;13.340;2022-08-06T07:29:56;17.80;99.90
16578;DHT22;8401;52.528;13.340;2022-08-06T07:32:23;17.60;99.90
16578;DHT22;8401;52.528;13.340;2022-08-06T07:34:49;17.90;99.90
16578;DHT22;8401;52.528;13.340;2022-08-06T07:37:17;17.80;99.90
16578;DHT22;8401;52.528;13.340;2022-08-06T07:39:46;17.90;99.90
16578;DHT22;8401;52.528;13.340;2022-08-06T07:42:15;18.20;99.90
16578;DHT22;8401;52.528;13.340;2022-08-06T07:44:48;18.30;99.90
16578;DHT22;8401;52.528;13.340;2022-08-06T07:47:18;18.40;99.90
16578;DHT22;8401;52.528;13.340;2022-08-06T07:49:52;18.80;99.90
16578;DHT22;8401;52.528;13.340;2022-08-06T07:52:19;18.90;99.90
16578;DHT22;8401;52.528;13.340;2022-08-06T07:54:46;19.50;99.90
16578;DHT22;8401;52.528;13.340;2022-08-06T07:57:13;20.10;99.90
16578;DHT22;8401;52.528;13.340;2022-08-06T07:59:39;20.40;99.90
16578;DHT22;8401;52.528;13.340;2022-08-06T08:02:05;20.70;99.90
16578;DHT22;8401;52.528;13.340;2022-08-06T08:04:34;20.00;99.90
16578;DHT22;8401;52.528;13.340;2022-08-06T08:07:18;19.90;99.90
16578;DHT22;8401;52.528;13.340;2022-08-06T08:09:45;19.70;99.90
16578;DHT22;8401;52.528;13.340;2022-08-06T08:12:16;19.30;99.90
16578;DHT22;8401;52.528;13.340;2022-08-06T08:14:46;19.50;99.90
16578;DHT22;8401;52.528;13.340;2022-08-06T08:17:12;19.60;99.90
16578;DHT22;8401;52.528;13.340;2022-08-06T08:19:39;19.90;99.90
16578;DHT22;8401;52.528;13.340;2022-08-06T08:22:09;20.00;99.90
16578;DHT22;8401;52.528;13.340;2022-08-06T08:24:36;21.90;99.90
16578;DHT22;8401;52.528;13.340;2022-08-06T08:27:07;23.10;99.90
16578;DHT22;8401;52.528;13.340;2022-08-06T08:29:35;23.10;99.90
16578;DHT22;8401;52.528;13.340;2022-08-06T08:32:01;25.20;99.90
16578;DHT22;8401;52.528;13.340;2022-08-06T08:34:27;24.10;99.90
16578;DHT22;8401;52.528;13.340;2022-08-06T08:36:52;25.00;99.90
16578;DHT22;8401;52.528;13.340;2022-08-06T08:39:18;23.90;99.90
16578;DHT22;8401;52.528;13.340;2022-08-06T08:42:04;23.20;99.90
16578;DHT22;8401;52.528;13.340;2022-08-06T08:44:33;25.20;99.90
16578;DHT22;8401;52.528;13.340;2022-08-06T08:46:59;23.70;99.90
16578;DHT22;8401;52.528;13.340;2022-08-06T08:51:51;24.10;99.90
16578;DHT22;8401;52.528;13.340;2022-08-06T08:54:21;25.40;99.90
16578;DHT22;8401;52.528;13.340;2022-08-06T08:56:48;27.10;99.90
16578;DHT22;8401;52.528;13.340;2022-08-06T08:59:15;27.80;99.90
16578;DHT22;8401;52.528;13.340;2022-08-06T09:01:41;25.70;99.90
16578;DHT22;8401;52.528;13.340;2022-08-06T09:04:07;25.10;99.90
16578;DHT22;8401;52.528;13.340;2022-08-06T09:06:34;25.40;99.90
16578;DHT22;8401;52.528;13.340;2022-08-06T09:09:02;25.60;99.90
16578;DHT22;8401;52.528;13.340;2022-08-06T09:11:32;25.90;99.30
16578;DHT22;8401;52.528;13.340;2022-08-06T09:14:00;25.60;99.90
16578;DHT22;8401;52.528;13.340;2022-08-06T09:16:28;25.50;98.30
16578;DHT22;8401;52.528;13.340;2022-08-06T09:18:54;25.70;98.60
16578;DHT22;8401;52.528;13.340;2022-08-06T09:21:20;25.00;97.90
16578;DHT22;8401;52.528;13.340;2022-08-06T09:23:45;25.90;95.50
16578;DHT22;8401;52.528;13.340;2022-08-06T09:26:11;25.60;94.30
16578;DHT22;8401;52.528;13.340;2022-08-06T09:28:42;25.50;94.10
16578;DHT22;8401;52.528;13.340;2022-08-06T09:31:12;27.90;92.30
16578;DHT22;8401;52.528;13.340;2022-08-06T09:33:41;26.70;91.30
16578;DHT22;8401;52.528;13.340;2022-08-06T09:36:10;25.80;91.70
16578;DHT22;8401;52.528;13.340;2022-08-06T09:38:55;26.30;93.00
16578;DHT22;8401;52.528;13.340;2022-08-06T09:41:24;26.60;92.30
16578;DHT22;8401;52.528;13.340;2022-08-06T09:43:52;25.70;92.80
16578;DHT22;8401;52.528;13.340;2022-08-06T09:46:34;23.90;94.90
16578;DHT22;8401;52.528;13.340;2022-08-06T09:49:02;24.20;96.50
16578;DHT22;8401;52.528;13.340;2022-08-06T09:51:28;24.60;94.70
16578;DHT22;8401;52.528;13.340;2022-08-06T09:53:56;24.60;93.60
16578;DHT22;8401;52.528;13.340;2022-08-06T09:56:22;24.80;94.20
16578;DHT22;8401;52.528;13.340;2022-08-06T09:58:48;24.90;95.30
16578;DHT22;8401;52.528;13.340;2022-08-06T10:01:20;25.40;95.00
16578;DHT22;8401;52.528;13.340;2022-08-06T10:03:47;25.00;95.10
16578;DHT22;8401;52.528;13.340;2022-08-06T10:06:16;26.50;94.00
16578;DHT22;8401;52.528;13.340;2022-08-06T10:08:49;24.60;94.50
16578;DHT22;8401;52.528;13.340;2022-08-06T10:11:38;23.70;97.40
16578;DHT22;8401;52.528;13.340;2022-08-06T10:14:01;23.60;98.40
16578;DHT22;8401;52.528;13.340;2022-08-06T10:16:27;24.60;97.90
16578;DHT22;8401;52.528;13.340;2022-08-06T10:18:54;26.00;95.50
16578;DHT22;8401;52.528;13.340;2022-08-06T10:21:22;26.40;94.30
16578;DHT22;8401;52.528;13.340;2022-08-06T10:23:52;26.00;93.10
16578;DHT22;8401;52.528;13.340;2022-08-06T10:26:26;26.90;91.60
16578;DHT22;8401;52.528;13.340;2022-08-06T10:28:53;26.50;87.80
16578;DHT22;8401;52.528;13.340;2022-08-06T10:31:20;25.40;91.10
16578;DHT22;8401;52.528;13.340;2022-08-06T10:36:14;25.70;90.90
16578;DHT22;8401;52.528;13.340;2022-08-06T10:38:43;24.80;91.60
16578;DHT22;8401;52.528;13.340;2022-08-06T10:41:11;24.70;92.50
16578;DHT22;8401;52.528;13.340;2022-08-06T10:43:38;24.40;92.60
16578;DHT22;8401;52.528;13.340;2022-08-06T10:46:09;23.80;94.30
16578;DHT22;8401;52.528;13.340;2022-08-06T10:48:35;23.80;95.20
16578;DHT22;8401;52.528;13.340;2022-08-06T10:51:03;24.10;95.30
16578;DHT22;8401;52.528;13.340;2022-08-06T10:53:34;24.40;94.80
16578;DHT22;8401;52.528;13.340;2022-08-06T10:56:01;24.20;94.40
16578;DHT22;8401;52.528;13.340;2022-08-06T10:58:29;25.70;94.10
16578;DHT22;8401;52.528;13.340;2022-08-06T11:00:57;27.40;90.40
16578;DHT22;8401;52.528;13.340;2022-08-06T11:12:49;30.00;81.00
16578;DHT22;8401;52.528;13.340;2022-08-06T11:15:13;28.30;80.70
16578;DHT22;8401;52.528;13.340;2022-08-06T11:17:50;28.80;76.60
16578;DHT22;8401;52.528;13.340;2022-08-06T11:23:01;26.70;77.70
16578;DHT22;8401;52.528;13.340;2022-08-06T11:25:47;27.70;80.60
16578;DHT22;8401;52.528;13.340;2022-08-06T11:30:54;29.30;73.80
16578;DHT22;8401;52.528;13.340;2022-08-06T11:34:01;28.50;72.60
16578;DHT22;8401;52.528;13.340;2022-08-06T11:36:23;28.10;73.30
16578;DHT22;8401;52.528;13.340;2022-08-06T11:38:56;27.50;74.50
16578;DHT22;8401;52.528;13.340;2022-08-06T11:41:24;27.70;72.80
16578;DHT22;8401;52.528;13.340;2022-08-06T11:55:21;25.60;78.90
16578;DHT22;8401;52.528;13.340;2022-08-06T11:57:22;25.90;78.80
16578;DHT22;8401;52.528;13.340;2022-08-06T12:00:03;25.20;80.80
16578;DHT22;8401;52.528;13.340;2022-08-06T12:05:31;24.60;83.50
16578;DHT22;8401;52.528;13.340;2022-08-06T12:08:19;24.70;80.40
16578;DHT22;8401;52.528;13.340;2022-08-06T12:11:23;24.60;79.10
16578;DHT22;8401;52.528;13.340;2022-08-06T12:13:49;24.40;79.10
16578;DHT22;8401;52.528;13.340;2022-08-06T12:16:35;24.40;79.00
16578;DHT22;8401;52.528;13.340;2022-08-06T12:19:02;24.50;79.60
16578;DHT22;8401;52.528;13.340;2022-08-06T12:21:29;24.40;79.20
16578;DHT22;8401;52.528;13.340;2022-08-06T12:23:55;23.60;80.80
16578;DHT22;8401;52.528;13.340;2022-08-06T12:26:21;23.10;83.30
16578;DHT22;8401;52.528;13.340;2022-08-06T12:28:47;23.10;85.00
16578;DHT22;8401;52.528;13.340;2022-08-06T12:31:13;23.00;83.20
16578;DHT22;8401;52.528;13.340;2022-08-06T12:33:52;23.00;84.00
16578;DHT22;8401;52.528;13.340;2022-08-06T12:36:17;23.20;79.20
16578;DHT22;8401;52.528;13.340;2022-08-06T12:38:53;23.20;81.00
16578;DHT22;8401;52.528;13.340;2022-08-06T12:41:19;23.60;82.00
16578;DHT22;8401;52.528;13.340;2022-08-06T12:43:45;23.90;81.20
16578;DHT22;8401;52.528;13.340;2022-08-06T12:46:11;23.80;81.10
16578;DHT22;8401;52.528;13.340;2022-08-06T12:48:37;24.00;80.50
16578;DHT22;8401;52.528;13.340;2022-08-06T12:51:11;23.80;80.10
16578;DHT22;8401;52.528;13.340;2022-08-06T12:56:16;24.30;78.20
16578;DHT22;8401;52.528;13.340;2022-08-06T12:58:43;24.60;77.90
16578;DHT22;8401;52.528;13.340;2022-08-06T13:01:16;25.00;76.90
16578;DHT22;8401;52.528;13.340;2022-08-06T13:03:45;24.60;76.20
16578;DHT22;8401;52.528;13.340;2022-08-06T13:06:14;24.60;75.80
16578;DHT22;8401;52.528;13.340;2022-08-06T13:08:40;25.10;76.10
16578;DHT22;8401;52.528;13.340;2022-08-06T13:11:07;25.50;75.80
16578;DHT22;8401;52.528;13.340;2022-08-06T13:16:08;24.30;77.40
16578;DHT22;8401;52.528;13.340;2022-08-06T13:18:36;24.40;76.90
16578;DHT22;8401;52.528;13.340;2022-08-06T13:21:02;24.10;76.40
16578;DHT22;8401;52.528;13.340;2022-08-06T13:23:35;24.10;74.30
16578;DHT22;8401;52.528;13.340;2022-08-06T13:26:12;24.50;75.80
16578;DHT22;8401;52.528;13.340;2022-08-06T13:28:38;24.60;76.50
16578;DHT22;8401;52.528;13.340;2022-08-06T13:31:17;24.40;76.30
16578;DHT22;8401;52.528;13.340;2022-08-06T13:34:02;24.60;74.10
16578;DHT22;8401;52.528;13.340;2022-08-06T13:36:29;24.30;75.50
16578;DHT22;8401;52.528;13.340;2022-08-06T13:38:55;24.40;74.20
16578;DHT22;8401;52.528;13.340;2022-08-06T13:41:26;24.10;74.80
16578;DHT22;8401;52.528;13.340;2022-08-06T13:43:51;24.80;74.40
16578;DHT22;8401;52.528;13.340;2022-08-06T13:46:18;24.60;73.10
16578;DHT22;8401;52.528;13.340;2022-08-06T13:48:45;24.40;73.40
16578;DHT22;8401;52.528;13.340;2022-08-06T13:51:12;24.70;73.80
16578;DHT22;8401;52.528;13.340;2022-08-06T13:53:38;23.90;72.90
16578;DHT22;8401;52.528;13.340;2022-08-06T13:56:04;24.00;73.40
16578;DHT22;8401;52.528;13.340;2022-08-06T13:58:30;24.00;73.90
16578;DHT22;8401;52.528;13.340;2022-08-06T14:00:57;24.50;74.70
16578;DHT22;8401;52.528;13.340;2022-08-06T14:03:23;24.40;74.40
16578;DHT22;8401;52.528;13.340;2022-08-06T14:05:48;24.50;75.00
16578;DHT22;8401;52.528;13.340;2022-08-06T14:08:14;24.80;75.10
16578;DHT22;8401;52.528;13.340;2022-08-06T14:10:40;24.70;74.80
16578;DHT22;8401;52.528;13.340;2022-08-06T14:13:05;24.90;75.00
16578;DHT22;8401;52.528;13.340;2022-08-06T14:15:45;25.10;75.50
16578;DHT22;8401;52.528;13.340;2022-08-06T14:18:11;25.20;75.00
16578;DHT22;8401;52.528;13.340;2022-08-06T14:20:38;25.60;75.40
16578;DHT22;8401;52.528;13.340;2022-08-06T14:23:03;25.50;75.60
16578;DHT22;8401;52.528;13.340;2022-08-06T14:25:29;25.80;74.50
16578;DHT22;8401;52.528;13.340;2022-08-06T14:27:55;25.60;73.30
16578;DHT22;8401;52.528;13.340;2022-08-06T14:30:21;25.70;73.90
16578;DHT22;8401;52.528;13.340;2022-08-06T14:32:47;26.20;73.10
16578;DHT22;8401;52.528;13.340;2022-08-06T14:35:14;25.60;73.20
16578;DHT22;8401;52.528;13.340;2022-08-06T14:37:40;25.50;72.00
16578;DHT22;8401;52.528;13.340;2022-08-06T14:40:09;25.00;72.10
16578;DHT22;8401;52.528;13.340;2022-08-06T14:42:34;24.80;72.90
16578;DHT22;8401;52.528;13.340;2022-08-06T14:45:19;25.00;74.30
16578;DHT22;8401;52.528;13.340;2022-08-06T14:47:44;25.20;74.20
16578;DHT22;8401;52.528;13.340;2022-08-06T14:50:10;24.90;75.50
16578;DHT22;8401;52.528;13.340;2022-08-06T14:52:35;25.00;75.80
16578;DHT22;8401;52.528;13.340;2022-08-06T14:55:01;25.40;75.80
16578;DHT22;8401;52.528;13.340;2022-08-06T14:57:28;24.40;75.60
16578;DHT22;8401;52.528;13.340;2022-08-06T14:59:54;24.40;77.70
16578;DHT22;8401;52.528;13.340;2022-08-06T15:02:22;24.80;76.80
16578;DHT22;8401;52.528;13.340;2022-08-06T15:04:50;25.00;76.30
16578;DHT22;8401;52.528;13.340;2022-08-06T15:07:15;25.30;75.50
16578;DHT22;8401;52.528;13.340;2022-08-06T15:09:41;25.40;75.50
16578;DHT22;8401;52.528;13.340;2022-08-06T15:12:07;24.70;74.70
16578;DHT22;8401;52.528;13.340;2022-08-06T15:14:32;24.70;75.60
16578;DHT22;8401;52.528;13.340;2022-08-06T15:17:00;25.10;74.40
16578;DHT22;8401;52.528;13.340;2022-08-06T15:19:25;25.10;72.90
16578;DHT22;8401;52.528;13.340;2022-08-06T15:21:51;24.70;73.40
16578;DHT22;8401;52.528;13.340;2022-08-06T15:24:17;25.10;73.40
16578;DHT22;8401;52.528;13.340;2022-08-06T15:26:43;25.20;73.50
16578;DHT22;8401;52.528;13.340;2022-08-06T15:29:09;25.00;74.30
16578;DHT22;8401;52.528;13.340;2022-08-06T15:31:35;24.50;75.50
16578;DHT22;8401;52.528;13.340;2022-08-06T15:34:00;24.00;76.80
16578;DHT22;8401;52.528;13.340;2022-08-06T15:36:26;24.10;77.40
16578;DHT22;8401;52.528;13.340;2022-08-06T15:38:52;23.80;77.60
16578;DHT22;8401;52.528;13.340;2022-08-06T15:41:19;24.00;77.10
16578;DHT22;8401;52.528;13.340;2022-08-06T15:43:46;24.10;75.80
16578;DHT22;8401;52.528;13.340;2022-08-06T15:46:12;24.20;74.80
16578;DHT22;8401;52.528;13.340;2022-08-06T15:48:38;24.20;74.00
16578;DHT22;8401;52.528;13.340;2022-08-06T15:51:04;23.90;74.60
16578;DHT22;8401;52.528;13.340;2022-08-06T15:53:30;24.10;74.80
16578;DHT22;8401;52.528;13.340;2022-08-06T15:55:56;24.20;72.40
16578;DHT22;8401;52.528;13.340;2022-08-06T15:58:22;24.50;72.00
16578;DHT22;8401;52.528;13.340;2022-08-06T16:00:47;24.10;71.60
16578;DHT22;8401;52.528;13.340;2022-08-06T16:03:13;24.10;72.20
16578;DHT22;8401;52.528;13.340;2022-08-06T16:05:40;24.10;73.60
16578;DHT22;8401;52.528;13.340;2022-08-06T16:08:07;23.90;73.10
16578;DHT22;8401;52.528;13.340;2022-08-06T16:10:36;24.10;73.60
16578;DHT22;8401;52.528;13.340;2022-08-06T16:13:05;24.10;72.50
16578;DHT22;8401;52.528;13.340;2022-08-06T16:15:31;24.30;71.60
16578;DHT22;8401;52.528;13.340;2022-08-06T16:17:56;24.10;72.30
16578;DHT22;8401;52.528;13.340;2022-08-06T16:20:22;24.10;72.40
16578;DHT22;8401;52.528;13.340;2022-08-06T16:22:48;24.20;71.90
16578;DHT22;8401;52.528;13.340;2022-08-06T16:25:14;24.00;71.70
16578;DHT22;8401;52.528;13.340;2022-08-06T16:27:41;24.00;72.30
16578;DHT22;8401;52.528;13.340;2022-08-06T16:30:07;24.20;72.90
16578;DHT22;8401;52.528;13.340;2022-08-06T16:32:33;24.20;72.20
16578;DHT22;8401;52.528;13.340;2022-08-06T16:35:00;23.90;72.00
16578;DHT22;8401;52.528;13.340;2022-08-06T16:37:26;23.90;72.30
16578;DHT22;8401;52.528;13.340;2022-08-06T16:39:55;23.90;72.30
16578;DHT22;8401;52.528;13.340;2022-08-06T16:42:20;23.90;73.00
16578;DHT22;8401;52.528;13.340;2022-08-06T16:44:46;23.80;73.50
16578;DHT22;8401;52.528;13.340;2022-08-06T16:47:12;23.50;75.00